createdAt,value
2022-11-23T00:01:36.129Z,75.63
2022-11-23T00:04:10.646Z,75.74
2022-11-23T00:06:39.540Z,75.85
2022-11-23T00:09:08.017Z,75.64
2022-11-23T00:11:36.396Z,75.64
2022-11-23T00:14:05.049Z,75.66
2022-11-23T00:16:48.821Z,75.47
2022-11-23T00:19:16.998Z,75.70
2022-11-23T00:21:45.064Z,75.58
2022-11-23T00:24:13.545Z,75.49
2022-11-23T00:26:41.719Z,75.70
2022-11-23T00:29:10.291Z,75.57
2022-11-23T00:31:40.831Z,75.71
2022-11-23T00:34:09.004Z,75.68
2022-11-23T00:36:37.177Z,75.88
2022-11-23T00:39:05.270Z,75.82
2022-11-23T00:41:33.422Z,75.79
2022-11-23T00:44:01.595Z,75.78
2022-11-23T00:46:29.772Z,75.56
2022-11-23T00:48:58.649Z,75.61
2022-11-23T00:51:30.010Z,75.89
2022-11-23T00:54:00.005Z,75.86
2022-11-23T00:56:30.246Z,76.21
2022-11-23T00:59:00.070Z,76.02
2022-11-23T01:01:34.462Z,76.10
2022-11-23T01:04:05.330Z,76.22
2022-11-23T01:06:39.407Z,76.12
2022-11-23T01:09:17.965Z,75.79
2022-11-23T01:11:46.219Z,76.19
2022-11-23T01:14:14.394Z,76.25
2022-11-23T01:16:43.336Z,76.40
2022-11-23T01:19:13.505Z,76.38
2022-11-23T01:21:42.012Z,76.42
2022-11-23T01:24:16.716Z,76.39
2022-11-23T01:26:45.478Z,76.44
2022-11-23T01:29:13.674Z,76.13
2022-11-23T01:31:46.225Z,76.07
2022-11-23T01:34:17.269Z,76.11
2022-11-23T01:36:45.876Z,76.08
2022-11-23T01:39:14.460Z,76.21
2022-11-23T01:41:45.009Z,76.19
2022-11-23T01:44:31.694Z,76.34
2022-11-23T01:47:02.330Z,76.17
2022-11-23T01:49:36.754Z,76.28
2022-11-23T01:52:18.544Z,76.40
2022-11-23T01:54:50.708Z,76.13
2022-11-23T01:57:27.075Z,76.13
2022-11-23T01:59:56.579Z,76.47
2022-11-23T02:02:27.822Z,76.45
2022-11-23T02:04:59.477Z,76.28
2022-11-23T02:07:29.387Z,76.55
2022-11-23T02:09:58.383Z,76.66
2022-11-23T02:12:26.571Z,76.57
2022-11-23T02:14:54.631Z,76.36
2022-11-23T02:17:22.919Z,76.53
2022-11-23T02:19:50.977Z,76.79
2022-11-23T02:22:45.980Z,76.80
2022-11-23T02:25:27.056Z,76.56
2022-11-23T02:27:55.331Z,76.80
2022-11-23T02:30:23.710Z,76.86
2022-11-23T02:32:53.214Z,76.66
2022-11-23T02:35:21.286Z,76.47
2022-11-23T02:37:50.688Z,76.57
2022-11-23T02:40:37.092Z,76.67
2022-11-23T02:45:55.656Z,76.88
2022-11-23T02:48:26.508Z,76.76
2022-11-23T02:50:54.873Z,77.09
2022-11-23T02:53:22.942Z,77.03
2022-11-23T02:55:55.214Z,76.80
2022-11-23T02:58:25.383Z,76.98
2022-11-23T03:00:53.529Z,77.14
2022-11-23T03:03:23.521Z,77.21
2022-11-23T03:05:51.593Z,77.26
2022-11-23T03:08:19.667Z,77.34
2022-11-23T03:10:48.042Z,77.35
2022-11-23T03:13:16.114Z,77.20
2022-11-23T03:15:45.525Z,77.05
2022-11-23T03:18:13.794Z,77.19
2022-11-23T03:20:41.966Z,77.35
2022-11-23T03:23:10.037Z,77.30
2022-11-23T03:25:39.340Z,77.39
2022-11-23T03:28:07.395Z,77.42
2022-11-23T03:30:36.400Z,77.42
2022-11-23T03:33:06.083Z,77.46
2022-11-23T03:35:34.283Z,77.15
2022-11-23T03:38:31.415Z,77.26
2022-11-23T03:41:00.021Z,77.45
2022-11-23T03:43:37.430Z,77.27
2022-11-23T03:46:05.788Z,77.39
2022-11-23T03:48:33.965Z,77.48
2022-11-23T03:51:02.034Z,77.41
2022-11-23T03:53:30.109Z,77.44
2022-11-23T03:55:58.452Z,77.32
2022-11-23T03:58:27.886Z,77.51
2022-11-23T04:00:56.282Z,77.62
2022-11-23T04:03:24.540Z,77.70
2022-11-23T04:06:08.788Z,77.74
2022-11-23T04:08:51.911Z,77.59
2022-11-23T04:11:27.155Z,77.55
2022-11-23T04:13:59.421Z,77.36
2022-11-23T04:16:27.697Z,77.54
2022-11-23T04:18:55.873Z,77.72
2022-11-23T04:21:24.453Z,77.70
2022-11-23T04:23:52.833Z,77.89
2022-11-23T04:26:21.217Z,77.81
2022-11-23T04:28:49.999Z,77.83
2022-11-23T04:31:18.787Z,77.53
2022-11-23T04:33:59.259Z,77.60
2022-11-23T04:36:27.934Z,77.89
2022-11-23T04:38:57.029Z,77.79
2022-11-23T04:41:34.094Z,77.84
2022-11-23T04:44:04.565Z,77.91
2022-11-23T04:46:35.888Z,77.93
2022-11-23T04:49:09.693Z,77.81
2022-11-23T04:51:39.197Z,77.55
2022-11-23T04:54:07.369Z,77.77
2022-11-23T04:56:41.175Z,77.88
2022-11-23T04:59:09.348Z,77.99
2022-11-23T05:01:39.520Z,77.99
2022-11-23T05:04:36.905Z,78.22
2022-11-23T05:07:05.456Z,78.27
2022-11-23T05:09:35.268Z,77.98
2022-11-23T05:12:16.091Z,78.33
2022-11-23T05:14:44.278Z,78.21
2022-11-23T05:17:13.468Z,78.25
2022-11-23T05:19:42.966Z,78.32
2022-11-23T05:22:11.653Z,78.45
2022-11-23T05:24:41.364Z,78.44
2022-11-23T05:27:11.994Z,78.27
2022-11-23T05:29:40.375Z,78.19
2022-11-23T05:32:08.955Z,78.36
2022-11-23T05:34:37.026Z,78.22
2022-11-23T05:37:05.610Z,78.53
2022-11-23T05:39:34.415Z,78.37
2022-11-23T05:42:03.082Z,78.48
2022-11-23T05:44:35.352Z,78.33
2022-11-23T05:47:04.756Z,78.42
2022-11-23T05:49:35.208Z,78.47
2022-11-23T05:52:04.995Z,78.50
2022-11-23T05:54:35.522Z,78.44
2022-11-23T05:57:08.207Z,78.46
2022-11-23T05:59:39.140Z,78.46
2022-11-23T06:02:08.030Z,78.24
2022-11-23T06:04:37.125Z,78.27
2022-11-23T06:07:07.381Z,78.25
2022-11-23T06:09:53.008Z,78.49
2022-11-23T06:12:21.511Z,78.61
2022-11-23T06:14:50.299Z,78.33
2022-11-23T06:17:21.341Z,78.48
2022-11-23T06:19:51.149Z,78.45
2022-11-23T06:22:19.562Z,78.33
2022-11-23T06:24:56.511Z,78.55
2022-11-23T06:27:36.563Z,78.43
2022-11-23T06:30:09.019Z,78.43
2022-11-23T06:32:38.440Z,78.58
2022-11-23T06:35:07.708Z,78.45
2022-11-23T06:37:38.780Z,78.52
2022-11-23T06:40:08.183Z,78.42
2022-11-23T06:42:39.315Z,78.28
2022-11-23T06:45:14.750Z,78.46
2022-11-23T06:47:46.527Z,78.76
2022-11-23T06:50:16.443Z,78.79
2022-11-23T06:52:45.956Z,78.69
2022-11-23T06:55:14.836Z,78.52
2022-11-23T06:57:43.217Z,78.46
2022-11-23T07:00:13.539Z,78.24
2022-11-23T07:02:43.457Z,78.53
2022-11-23T07:05:11.601Z,78.57
2022-11-23T07:07:40.129Z,78.64
2022-11-23T07:10:16.923Z,78.66
2022-11-23T07:12:51.916Z,78.57
2022-11-23T07:15:21.616Z,78.72
2022-11-23T07:17:53.897Z,78.51
2022-11-23T07:20:23.094Z,78.26
2022-11-23T07:23:09.289Z,78.24
2022-11-23T07:25:38.691Z,78.62
2022-11-23T07:28:08.299Z,78.73
2022-11-23T07:30:37.005Z,78.82
2022-11-23T07:33:11.404Z,78.50
2022-11-23T07:35:41.424Z,78.46
2022-11-23T07:38:09.799Z,78.33
2022-11-23T07:40:39.380Z,78.14
2022-11-23T07:43:13.725Z,78.57
2022-11-23T07:45:41.901Z,78.37
2022-11-23T07:48:13.555Z,78.60
2022-11-23T07:50:41.624Z,78.37
2022-11-23T07:53:10.925Z,78.59
2022-11-23T07:55:39.202Z,78.60
2022-11-23T07:58:07.372Z,78.37
2022-11-23T08:00:35.551Z,78.51
2022-11-23T08:03:26.639Z,78.48
2022-11-23T08:05:53.195Z,78.68
2022-11-23T08:08:21.377Z,78.67
2022-11-23T08:10:53.270Z,78.56
2022-11-23T08:13:22.938Z,78.61
2022-11-23T08:15:55.540Z,78.61
2022-11-23T08:18:24.815Z,78.45
2022-11-23T08:20:53.909Z,78.67
2022-11-23T08:23:22.292Z,78.67
2022-11-23T08:25:50.460Z,78.77
2022-11-23T08:28:19.045Z,78.44
2022-11-23T08:30:48.138Z,78.38
2022-11-23T08:33:17.119Z,78.67
2022-11-23T08:35:45.305Z,78.36
2022-11-23T08:38:13.888Z,78.28
2022-11-23T08:40:42.266Z,78.56
2022-11-23T08:43:10.440Z,78.67
2022-11-23T08:45:38.615Z,78.74
2022-11-23T08:48:07.300Z,78.73
2022-11-23T08:50:35.662Z,78.52
2022-11-23T08:53:03.954Z,78.62
2022-11-23T08:55:32.541Z,78.75
2022-11-23T08:58:01.124Z,78.67
2022-11-23T09:00:29.808Z,78.78
2022-11-23T09:02:59.223Z,78.93
2022-11-23T09:05:29.839Z,78.78
2022-11-23T09:08:02.013Z,78.78
2022-11-23T09:10:30.489Z,78.96
2022-11-23T09:12:59.614Z,78.76
2022-11-23T09:15:27.757Z,78.44
2022-11-23T09:17:57.372Z,78.28
2022-11-23T09:20:26.039Z,78.51
2022-11-23T09:22:55.553Z,78.55
2022-11-23T09:25:24.035Z,79.05
2022-11-23T09:27:58.986Z,78.76
2022-11-23T09:30:28.056Z,78.62
2022-11-23T09:32:59.409Z,78.95
2022-11-23T09:35:27.689Z,78.37
2022-11-23T09:37:58.943Z,78.68
2022-11-23T09:40:41.850Z,78.86
2022-11-23T09:43:45.658Z,78.69
2022-11-23T09:46:40.050Z,78.75
2022-11-23T09:49:16.514Z,78.89
2022-11-23T09:51:45.691Z,78.63
2022-11-23T09:54:19.620Z,78.43
2022-11-23T09:56:51.176Z,78.39
2022-11-23T09:59:34.912Z,78.38
2022-11-23T10:02:03.350Z,78.65
2022-11-23T10:04:35.253Z,78.72
2022-11-23T10:07:29.994Z,78.59
2022-11-23T10:10:07.644Z,78.31
2022-11-23T10:13:14.423Z,78.50
2022-11-23T10:16:10.553Z,78.32
2022-11-23T10:19:20.607Z,78.69
2022-11-23T10:21:51.406Z,78.54
2022-11-23T10:24:28.748Z,78.76
2022-11-23T10:26:58.338Z,78.41
2022-11-23T10:29:36.446Z,78.52
2022-11-23T10:32:22.947Z,78.55
2022-11-23T10:34:57.369Z,78.33
2022-11-23T10:37:25.748Z,78.50
2022-11-23T10:39:53.918Z,78.52
2022-11-23T10:42:32.575Z,78.27
2022-11-23T10:45:02.042Z,78.31
2022-11-23T10:47:50.798Z,78.57
2022-11-23T10:50:30.364Z,78.30
2022-11-23T10:53:20.088Z,77.83
2022-11-23T10:55:48.189Z,77.91
2022-11-23T10:58:32.031Z,77.94
2022-11-23T11:01:02.252Z,78.20
2022-11-23T11:03:33.497Z,78.36
2022-11-23T11:06:10.948Z,78.11
2022-11-23T11:08:54.014Z,78.29
2022-11-23T11:11:25.768Z,78.26
2022-11-23T11:14:05.928Z,78.02
2022-11-23T11:16:38.397Z,78.25
2022-11-23T11:19:30.037Z,78.61
2022-11-23T11:22:00.344Z,78.55
2022-11-23T11:24:36.502Z,78.41
2022-11-23T11:27:12.768Z,78.32
2022-11-23T11:29:43.915Z,78.01
2022-11-23T11:32:17.514Z,77.98
2022-11-23T11:34:55.704Z,78.07
2022-11-23T11:37:41.304Z,78.66
2022-11-23T11:40:15.212Z,78.56
2022-11-23T11:42:58.030Z,78.82
2022-11-23T11:45:31.120Z,78.83
2022-11-23T11:48:23.278Z,78.89
2022-11-23T11:50:56.648Z,78.60
2022-11-23T11:53:39.694Z,78.27
2022-11-23T11:56:22.796Z,78.24
2022-11-23T11:59:22.819Z,78.32
2022-11-23T12:01:50.988Z,78.43
2022-11-23T12:05:01.147Z,78.35
2022-11-23T12:07:35.702Z,78.46
2022-11-23T12:10:12.183Z,78.52
2022-11-23T12:12:41.025Z,78.57
2022-11-23T12:18:26.936Z,78.49
2022-11-23T12:21:05.002Z,78.58
2022-11-23T12:23:51.034Z,78.64
2022-11-23T12:26:44.193Z,79.15
2022-11-23T12:29:42.973Z,78.81
2022-11-23T12:32:36.654Z,78.65
2022-11-23T12:35:26.538Z,78.75
2022-11-23T12:37:54.607Z,78.63
2022-11-23T12:40:40.599Z,78.60
2022-11-23T12:43:38.060Z,78.74
2022-11-23T12:46:18.930Z,78.69
2022-11-23T12:49:11.475Z,78.47
2022-11-23T12:51:49.787Z,78.08
2022-11-23T12:54:20.929Z,78.08
2022-11-23T12:57:01.091Z,78.08
2022-11-23T12:59:58.339Z,78.18
2022-11-23T13:02:57.745Z,78.21
2022-11-23T13:05:48.449Z,78.09
2022-11-23T13:09:07.514Z,78.21
2022-11-23T13:11:51.056Z,77.75
2022-11-23T13:14:47.175Z,77.96
2022-11-23T13:17:29.686Z,78.10
2022-11-23T13:20:23.766Z,78.10
2022-11-23T13:22:52.897Z,78.16
2022-11-23T13:25:24.874Z,78.04
2022-11-23T13:27:53.406Z,78.21
2022-11-23T13:31:07.167Z,77.90
2022-11-23T13:33:37.437Z,78.26
2022-11-23T13:36:13.906Z,78.13
2022-11-23T13:38:46.732Z,78.30
2022-11-23T13:41:44.387Z,78.03
2022-11-23T13:44:21.684Z,78.28
2022-11-23T13:47:18.623Z,78.01
2022-11-23T13:49:49.869Z,78.04
2022-11-23T13:52:21.113Z,78.00
2022-11-23T13:55:11.630Z,77.70
2022-11-23T13:57:42.911Z,78.09
2022-11-23T14:00:45.875Z,78.43
2022-11-23T14:03:54.158Z,78.40
2022-11-23T14:06:28.478Z,78.27
2022-11-23T14:08:59.416Z,78.33
2022-11-23T14:11:28.689Z,78.02
2022-11-23T14:14:03.881Z,78.22
2022-11-23T14:16:44.277Z,77.91
2022-11-23T14:19:34.811Z,77.72
2022-11-23T14:22:24.695Z,77.96
2022-11-23T14:25:11.505Z,78.18
2022-11-23T14:27:52.070Z,77.83
2022-11-23T14:30:35.500Z,77.91
2022-11-23T14:33:16.883Z,78.14
2022-11-23T14:36:13.710Z,78.19
2022-11-23T14:39:18.868Z,77.88
2022-11-23T14:41:53.700Z,78.48
2022-11-23T14:44:27.505Z,78.12
2022-11-23T14:47:07.109Z,78.04
2022-11-23T14:49:36.243Z,78.41
2022-11-23T14:52:05.925Z,78.12
2022-11-23T14:54:35.558Z,78.11
2022-11-23T14:57:05.166Z,78.18
2022-11-23T14:59:38.157Z,77.93
2022-11-23T15:02:19.245Z,78.30
2022-11-23T15:05:04.037Z,78.38
2022-11-23T15:07:47.379Z,78.27
2022-11-23T15:10:21.717Z,78.23
2022-11-23T15:12:50.419Z,78.10
2022-11-23T15:15:19.624Z,78.28
2022-11-23T15:18:06.229Z,78.06
2022-11-23T15:20:41.775Z,78.17
2022-11-23T15:23:21.827Z,78.11
2022-11-23T15:25:59.423Z,78.23
2022-11-23T15:28:30.362Z,78.19
2022-11-23T15:30:59.069Z,78.20
2022-11-23T15:33:27.938Z,78.32
2022-11-23T15:35:56.316Z,77.94
2022-11-23T15:38:24.693Z,78.17
2022-11-23T15:40:53.227Z,77.75
2022-11-23T15:43:21.454Z,77.84
2022-11-23T15:45:49.584Z,78.10
2022-11-23T15:48:21.995Z,78.18
2022-11-23T15:50:55.391Z,78.20
2022-11-23T15:53:30.120Z,77.79
2022-11-23T15:56:04.434Z,77.94
2022-11-23T15:58:35.414Z,77.81
2022-11-23T16:01:08.320Z,78.05
2022-11-23T16:03:51.176Z,78.07
2022-11-23T16:06:33.483Z,77.99
2022-11-23T16:09:01.757Z,78.12
2022-11-23T16:11:36.901Z,78.21
2022-11-23T16:14:19.925Z,77.94
2022-11-23T16:17:24.956Z,78.17
2022-11-23T16:19:55.694Z,77.99
2022-11-23T16:22:33.690Z,77.95
2022-11-23T16:25:27.873Z,77.86
2022-11-23T16:28:03.525Z,77.61
2022-11-23T16:30:49.896Z,77.71
2022-11-23T16:33:20.555Z,78.05
2022-11-23T16:35:49.784Z,77.76
2022-11-23T16:38:18.759Z,78.09
2022-11-23T16:40:50.832Z,77.80
2022-11-23T16:43:19.294Z,78.11
2022-11-23T16:45:51.585Z,78.29
2022-11-23T16:48:25.911Z,78.14
2022-11-23T16:50:55.866Z,78.13
2022-11-23T16:53:30.265Z,78.30
2022-11-23T16:56:02.995Z,78.23
2022-11-23T16:58:35.135Z,78.31
2022-11-23T17:01:04.025Z,78.14
2022-11-23T17:03:34.045Z,78.28
2022-11-23T17:06:02.242Z,78.33
2022-11-23T17:08:30.274Z,78.16
2022-11-23T17:10:58.383Z,77.99
2022-11-23T17:13:29.101Z,78.48
2022-11-23T17:15:57.197Z,78.32
2022-11-23T17:18:25.566Z,78.31
2022-11-23T17:20:56.201Z,78.66
2022-11-23T17:23:24.372Z,78.81
2022-11-23T17:25:52.749Z,78.62
2022-11-23T17:28:23.995Z,78.38
2022-11-23T17:30:52.094Z,78.82
2022-11-23T17:33:20.240Z,78.67
2022-11-23T17:35:48.895Z,78.82
2022-11-23T17:38:23.652Z,78.89
2022-11-23T17:40:52.123Z,78.50
2022-11-23T17:43:20.922Z,78.44
2022-11-23T17:45:49.408Z,78.38
2022-11-23T17:48:17.884Z,77.97
2022-11-23T17:50:47.667Z,78.26
2022-11-23T17:53:15.766Z,78.23
2022-11-23T17:55:43.940Z,78.28
2022-11-23T17:58:12.626Z,78.16
2022-11-23T18:00:41.107Z,77.85
2022-11-23T18:03:09.251Z,77.98
2022-11-23T18:05:37.658Z,77.89
2022-11-23T18:08:06.204Z,78.04
2022-11-23T18:10:34.311Z,78.01
2022-11-23T18:13:02.897Z,77.64
2022-11-23T18:15:31.110Z,77.72
2022-11-23T18:18:04.354Z,77.81
2022-11-23T18:20:33.356Z,77.89
2022-11-23T18:23:01.642Z,78.15
2022-11-23T18:25:29.805Z,77.64
2022-11-23T18:27:57.980Z,77.67
2022-11-23T18:30:26.152Z,78.09
2022-11-23T18:32:54.532Z,77.60
2022-11-23T18:35:22.807Z,77.47
2022-11-23T18:37:50.984Z,77.79
2022-11-23T18:40:19.153Z,77.67
2022-11-23T18:42:47.327Z,77.85
2022-11-23T18:45:15.603Z,77.78
2022-11-23T18:47:43.680Z,77.83
2022-11-23T18:50:12.769Z,77.74
2022-11-23T18:52:40.943Z,77.89
2022-11-23T18:55:09.730Z,77.84
2022-11-23T18:57:38.112Z,77.60
2022-11-23T19:00:08.181Z,77.83
2022-11-23T19:02:38.348Z,77.70
2022-11-23T19:05:07.336Z,77.73
2022-11-23T19:07:35.564Z,77.53
2022-11-23T19:10:04.111Z,77.70
2022-11-23T19:12:32.270Z,77.71
2022-11-23T19:15:00.446Z,77.70
2022-11-23T19:17:28.646Z,77.56
2022-11-23T19:19:56.790Z,77.73
2022-11-23T19:22:24.970Z,77.29
2022-11-23T19:24:53.036Z,77.44
2022-11-23T19:27:21.107Z,77.40
2022-11-23T19:29:49.280Z,77.48
2022-11-23T19:32:17.351Z,77.59
2022-11-23T19:34:45.423Z,77.30
2022-11-23T19:37:13.496Z,77.44
2022-11-23T19:39:41.566Z,77.39
2022-11-23T19:42:09.739Z,77.41
2022-11-23T19:44:37.914Z,77.37
2022-11-23T19:47:11.955Z,77.21
2022-11-23T19:49:42.658Z,77.42
2022-11-23T19:52:10.829Z,77.44
2022-11-23T19:54:39.004Z,77.21
2022-11-23T19:57:07.075Z,77.61
2022-11-23T19:59:35.492Z,77.48
2022-11-23T20:02:04.372Z,77.56
2022-11-23T20:04:32.895Z,77.64
2022-11-23T20:07:01.202Z,77.64
2022-11-23T20:09:29.375Z,77.07
2022-11-23T20:11:57.447Z,77.34
2022-11-23T20:14:25.826Z,77.30
2022-11-23T20:16:54.101Z,77.80
2022-11-23T20:19:22.193Z,77.73
2022-11-23T20:21:50.363Z,77.64
2022-11-23T20:24:18.527Z,77.56
2022-11-23T20:26:46.694Z,77.61
2022-11-23T20:29:15.071Z,77.42
2022-11-23T20:31:43.323Z,77.73
2022-11-23T20:34:16.681Z,77.44
2022-11-23T20:36:48.305Z,77.15
2022-11-23T20:39:16.776Z,77.75
2022-11-23T20:41:45.329Z,77.62
2022-11-23T20:44:14.635Z,77.40
2022-11-23T20:49:32.777Z,77.76
2022-11-23T20:52:02.105Z,77.81
2022-11-23T20:54:30.500Z,77.61
2022-11-23T20:57:00.570Z,77.75
2022-11-23T20:59:29.609Z,77.58
2022-11-23T21:01:57.806Z,77.61
2022-11-23T21:04:26.467Z,77.86
2022-11-23T21:06:55.053Z,77.94
2022-11-23T21:09:23.225Z,78.01
2022-11-23T21:12:10.446Z,77.95
2022-11-23T21:14:39.028Z,77.55
2022-11-23T21:17:07.342Z,77.67
2022-11-23T21:19:38.040Z,77.85
2022-11-23T21:22:08.921Z,77.99
2022-11-23T21:24:37.641Z,77.94
2022-11-23T21:27:07.819Z,78.05
2022-11-23T21:29:36.055Z,78.06
2022-11-23T21:32:05.591Z,77.71
2022-11-23T21:34:33.988Z,77.98
2022-11-23T21:37:02.728Z,77.68
2022-11-23T21:39:31.420Z,77.74
2022-11-23T21:41:59.588Z,78.07
2022-11-23T21:44:27.966Z,77.91
2022-11-23T21:46:56.204Z,78.08
2022-11-23T21:49:27.974Z,78.11
2022-11-23T21:51:56.179Z,77.68
2022-11-23T21:54:24.242Z,78.09
2022-11-23T21:56:52.415Z,77.91
2022-11-23T21:59:20.693Z,77.78
2022-11-23T22:07:38.330Z,78.07
2022-11-23T22:10:07.822Z,77.91
2022-11-23T22:12:36.055Z,77.84
2022-11-23T22:15:04.959Z,78.12
2022-11-23T22:17:35.676Z,77.93
2022-11-23T22:20:06.572Z,77.86
2022-11-23T22:22:34.889Z,77.62
2022-11-23T22:25:03.170Z,77.70
2022-11-23T22:27:31.450Z,77.70
2022-11-23T22:30:00.031Z,77.78
2022-11-23T22:32:28.315Z,77.97
2022-11-23T22:34:56.680Z,78.04
2022-11-23T22:37:24.955Z,77.97
2022-11-23T22:39:53.230Z,77.86
2022-11-23T22:42:21.507Z,77.98
2022-11-23T22:44:50.706Z,77.70
2022-11-23T22:47:18.981Z,77.83
2022-11-23T22:49:47.258Z,77.64
2022-11-23T22:52:15.533Z,78.07
2022-11-23T22:54:43.808Z,77.93
2022-11-23T22:57:12.083Z,77.79
2022-11-23T22:59:40.361Z,78.09
2022-11-23T23:02:08.754Z,77.71
2022-11-23T23:04:37.221Z,77.84
2022-11-23T23:07:05.494Z,77.64
2022-11-23T23:09:33.806Z,77.55
2022-11-23T23:12:02.051Z,77.62
2022-11-23T23:14:30.398Z,77.61
2022-11-23T23:16:59.624Z,77.94
2022-11-23T23:19:29.027Z,77.82
2022-11-23T23:21:57.301Z,77.52
2022-11-23T23:24:25.576Z,77.86
2022-11-23T23:26:53.746Z,77.78
2022-11-23T23:29:21.916Z,77.68
2022-11-23T23:31:50.495Z,77.60
2022-11-23T23:34:18.786Z,77.82
2022-11-23T23:36:46.956Z,77.83
2022-11-23T23:39:15.233Z,77.56
2022-11-23T23:41:43.613Z,77.81
2022-11-23T23:44:12.297Z,77.69
2022-11-23T23:46:40.572Z,77.61
2022-11-23T23:49:08.751Z,77.80
2022-11-23T23:51:38.906Z,77.67
2022-11-23T23:54:07.140Z,77.72
2022-11-23T23:56:35.521Z,77.67
2022-11-23T23:59:03.796Z,77.64
